createdAt,value
2017-09-07T00:00:51.861Z,990.93
2017-09-07T00:01:49.153Z,990.91
2017-09-07T00:02:46.429Z,990.90
2017-09-07T00:03:43.745Z,990.87
2017-09-07T00:04:41.040Z,990.84
2017-09-07T00:05:38.356Z,990.84
2017-09-07T00:06:35.614Z,990.87
2017-09-07T00:07:32.914Z,990.89
2017-09-07T00:08:30.190Z,990.92
2017-09-07T00:09:27.483Z,990.86
2017-09-07T00:10:24.750Z,990.78
2017-09-07T00:11:22.068Z,990.84
2017-09-07T00:12:19.371Z,990.81
2017-09-07T00:13:16.731Z,990.83
2017-09-07T00:14:13.989Z,990.79
2017-09-07T00:16:14.181Z,990.82
2017-09-07T00:17:11.409Z,990.85
2017-09-07T00:18:08.699Z,990.79
2017-09-07T00:19:05.942Z,990.79
2017-09-07T00:20:03.232Z,990.76
2017-09-07T00:21:00.479Z,990.75
2017-09-07T00:21:57.771Z,990.74
2017-09-07T00:22:55.081Z,990.75
2017-09-07T00:23:52.357Z,990.79
2017-09-07T00:24:49.609Z,990.76
2017-09-07T00:25:46.984Z,990.74
2017-09-07T00:26:44.258Z,990.71
2017-09-07T00:27:41.585Z,990.68
2017-09-07T00:28:38.874Z,990.71
2017-09-07T00:29:36.150Z,990.63
2017-09-07T00:30:33.525Z,990.72
2017-09-07T00:31:30.842Z,990.67
2017-09-07T00:32:28.089Z,990.65
2017-09-07T00:33:25.422Z,990.63
2017-09-07T00:34:22.682Z,990.69
2017-09-07T00:35:19.996Z,990.62
2017-09-07T00:36:17.382Z,990.71
2017-09-07T00:37:14.675Z,990.69
2017-09-07T00:38:11.993Z,990.66
2017-09-07T00:39:09.326Z,990.60
2017-09-07T00:40:06.601Z,990.66
2017-09-07T00:41:03.890Z,990.68
2017-09-07T00:42:01.240Z,990.65
2017-09-07T00:42:58.563Z,990.64
2017-09-07T00:43:55.798Z,990.62
2017-09-07T00:44:53.086Z,990.58
2017-09-07T00:45:50.356Z,990.61
2017-09-07T00:46:47.682Z,990.60
2017-09-07T00:47:44.945Z,990.65
2017-09-07T00:48:42.254Z,990.60
2017-09-07T00:49:39.518Z,990.56
2017-09-07T00:50:36.805Z,990.58
2017-09-07T00:51:34.074Z,990.52
2017-09-07T00:52:31.347Z,990.54
2017-09-07T00:53:28.644Z,990.57
2017-09-07T00:54:25.918Z,990.58
2017-09-07T00:55:23.209Z,990.54
2017-09-07T00:56:20.500Z,990.57
2017-09-07T00:57:17.795Z,990.46
2017-09-07T00:58:15.073Z,990.54
2017-09-07T00:59:12.394Z,990.60
2017-09-07T01:00:09.725Z,990.55
2017-09-07T01:01:07.011Z,990.57
2017-09-07T01:02:04.330Z,990.47
2017-09-07T01:03:01.584Z,990.50
2017-09-07T01:03:58.921Z,990.50
2017-09-07T01:04:56.218Z,990.51
2017-09-07T01:05:53.552Z,990.48
2017-09-07T01:06:54.761Z,990.53
2017-09-07T01:07:52.106Z,990.44
2017-09-07T01:08:49.402Z,990.48
2017-09-07T01:09:46.686Z,990.48
2017-09-07T01:10:43.955Z,990.48
2017-09-07T01:11:41.223Z,990.49
2017-09-07T01:12:38.503Z,990.43
2017-09-07T01:13:35.783Z,990.49
2017-09-07T01:14:33.040Z,990.48
2017-09-07T01:15:30.326Z,990.48
2017-09-07T01:16:27.573Z,990.46
2017-09-07T01:17:24.879Z,990.51
2017-09-07T01:18:22.149Z,990.48
2017-09-07T01:19:19.467Z,990.48
2017-09-07T01:20:16.753Z,990.43
2017-09-07T01:21:14.050Z,990.43
2017-09-07T01:22:11.346Z,990.45
2017-09-07T01:23:08.605Z,990.41
2017-09-07T01:24:05.852Z,990.42
2017-09-07T01:25:03.145Z,990.46
2017-09-07T01:26:00.421Z,990.40
2017-09-07T01:26:57.713Z,990.48
2017-09-07T01:27:54.978Z,990.52
2017-09-07T01:28:52.290Z,990.38
2017-09-07T01:29:49.606Z,990.38
2017-09-07T01:30:46.870Z,990.40
2017-09-07T01:31:44.138Z,990.45
2017-09-07T01:32:41.424Z,990.56
2017-09-07T01:33:38.740Z,990.49
2017-09-07T01:34:36.079Z,990.48
2017-09-07T01:35:33.326Z,990.47
2017-09-07T01:36:30.609Z,990.42
2017-09-07T01:37:27.876Z,990.40
2017-09-07T01:38:25.182Z,990.47
2017-09-07T01:39:22.443Z,990.42
2017-09-07T01:40:19.745Z,990.43
2017-09-07T01:41:16.981Z,990.41
2017-09-07T01:42:14.254Z,990.41
2017-09-07T01:43:11.543Z,990.39
2017-09-07T01:44:08.902Z,990.38
2017-09-07T01:45:06.171Z,990.38
2017-09-07T01:46:03.466Z,990.38
2017-09-07T01:47:00.745Z,990.41
2017-09-07T01:47:58.032Z,990.34
2017-09-07T01:48:55.271Z,990.31
2017-09-07T01:49:52.557Z,990.25
2017-09-07T01:50:49.848Z,990.30
2017-09-07T01:51:47.109Z,990.28
2017-09-07T01:52:44.414Z,990.23
2017-09-07T01:53:41.720Z,990.29
2017-09-07T01:54:39.009Z,990.32
2017-09-07T01:55:36.301Z,990.29
2017-09-07T01:56:33.568Z,990.21
2017-09-07T01:57:30.837Z,990.27
2017-09-07T01:58:28.092Z,990.28
2017-09-07T01:59:25.373Z,990.26
2017-09-07T02:00:22.641Z,990.27
2017-09-07T02:01:19.915Z,990.19
2017-09-07T02:02:17.155Z,990.18
2017-09-07T02:03:14.429Z,990.25
2017-09-07T02:04:11.686Z,990.19
2017-09-07T02:05:08.978Z,990.14
2017-09-07T02:06:06.326Z,990.21
2017-09-07T02:07:03.714Z,990.16
2017-09-07T02:08:00.970Z,990.19
2017-09-07T02:08:58.263Z,990.15
2017-09-07T02:09:55.498Z,990.12
2017-09-07T02:10:52.811Z,990.09
2017-09-07T02:11:50.077Z,990.18
2017-09-07T02:12:47.383Z,990.10
2017-09-07T02:13:44.645Z,990.08
2017-09-07T02:14:41.943Z,990.06
2017-09-07T02:15:39.183Z,990.06
2017-09-07T02:16:36.482Z,990.13
2017-09-07T02:17:33.771Z,990.10
2017-09-07T02:18:31.039Z,990.09
2017-09-07T02:19:28.300Z,990.07
2017-09-07T02:20:25.600Z,990.12
2017-09-07T02:21:22.870Z,990.10
2017-09-07T02:22:20.130Z,990.13
2017-09-07T02:23:17.382Z,990.15
2017-09-07T02:24:14.641Z,990.11
2017-09-07T02:25:11.889Z,990.16
2017-09-07T02:26:09.195Z,990.10
2017-09-07T02:27:06.527Z,990.09
2017-09-07T02:28:03.867Z,990.06
2017-09-07T02:29:01.134Z,990.09
2017-09-07T02:30:00.457Z,990.06
2017-09-07T02:30:57.700Z,990.05
2017-09-07T02:31:55.006Z,990.04
2017-09-07T02:32:52.401Z,990.05
2017-09-07T02:33:49.678Z,990.06
2017-09-07T02:34:46.961Z,990.04
2017-09-07T02:35:44.330Z,990.04
2017-09-07T02:36:41.603Z,990.02
2017-09-07T02:37:38.880Z,990.02
2017-09-07T02:38:36.152Z,990.08
2017-09-07T02:39:33.430Z,990.00
2017-09-07T02:40:30.695Z,989.99
2017-09-07T02:41:28.014Z,989.99
2017-09-07T02:42:25.329Z,989.99
2017-09-07T02:43:22.592Z,989.92
2017-09-07T02:44:19.839Z,990.05
2017-09-07T02:45:17.137Z,990.05
2017-09-07T02:46:14.366Z,989.97
2017-09-07T02:47:11.697Z,990.00
2017-09-07T02:48:08.965Z,990.12
2017-09-07T02:49:06.229Z,990.10
2017-09-07T02:50:03.509Z,990.10
2017-09-07T02:51:00.787Z,990.06
2017-09-07T02:51:58.069Z,990.02
2017-09-07T02:52:55.365Z,989.98
2017-09-07T02:53:52.626Z,989.97
2017-09-07T02:54:50.022Z,989.98
2017-09-07T02:55:47.310Z,990.01
2017-09-07T02:56:44.634Z,989.98
2017-09-07T02:57:41.881Z,990.01
2017-09-07T02:58:39.154Z,989.96
2017-09-07T02:59:36.417Z,989.92
2017-09-07T03:00:33.695Z,989.91
2017-09-07T03:01:30.954Z,989.91
2017-09-07T03:02:28.274Z,989.90
2017-09-07T03:03:25.506Z,989.91
2017-09-07T03:04:22.786Z,989.87
2017-09-07T03:05:20.052Z,989.88
2017-09-07T03:06:17.314Z,989.90
2017-09-07T03:07:14.566Z,989.83
2017-09-07T03:08:11.861Z,989.85
2017-09-07T03:09:09.126Z,989.86
2017-09-07T03:10:06.407Z,989.88
2017-09-07T03:11:03.670Z,989.87
2017-09-07T03:12:00.943Z,989.88
2017-09-07T03:12:58.210Z,989.83
2017-09-07T03:13:55.486Z,989.90
2017-09-07T03:14:52.742Z,989.88
2017-09-07T03:15:50.016Z,989.88
2017-09-07T03:16:47.290Z,989.97
2017-09-07T03:17:44.573Z,989.90
2017-09-07T03:18:41.833Z,989.89
2017-09-07T03:19:39.101Z,989.85
2017-09-07T03:20:36.360Z,989.89
2017-09-07T03:21:33.638Z,989.87
2017-09-07T03:22:30.934Z,989.89
2017-09-07T03:23:28.241Z,989.83
2017-09-07T03:24:25.505Z,989.81
2017-09-07T03:25:22.799Z,989.81
2017-09-07T03:26:20.046Z,989.85
2017-09-07T03:27:17.335Z,989.76
2017-09-07T03:28:14.586Z,989.76
2017-09-07T03:29:12.022Z,989.81
2017-09-07T03:30:09.381Z,989.76
2017-09-07T03:31:06.755Z,989.73
2017-09-07T03:32:04.134Z,989.65
2017-09-07T03:33:03.465Z,989.73
2017-09-07T03:34:00.705Z,989.75
2017-09-07T03:34:57.986Z,989.72
2017-09-07T03:35:55.227Z,989.76
2017-09-07T03:36:52.764Z,989.78
2017-09-07T03:37:50.214Z,989.76
2017-09-07T03:38:47.645Z,989.68
2017-09-07T03:39:45.106Z,989.71
2017-09-07T03:40:42.534Z,989.69
2017-09-07T03:41:39.786Z,989.67
2017-09-07T03:42:37.065Z,989.64
2017-09-07T03:43:34.378Z,989.72
2017-09-07T03:44:31.637Z,989.71
2017-09-07T03:45:28.907Z,989.72
2017-09-07T03:46:26.470Z,989.66
2017-09-07T03:47:23.721Z,989.74
2017-09-07T03:48:21.026Z,989.78
2017-09-07T03:49:18.274Z,989.74
2017-09-07T03:50:15.549Z,989.76
2017-09-07T03:51:12.834Z,989.73
2017-09-07T03:52:10.133Z,989.73
2017-09-07T03:53:07.373Z,989.79
2017-09-07T03:54:04.681Z,989.80
2017-09-07T03:55:01.950Z,989.77
2017-09-07T03:55:59.213Z,989.84
2017-09-07T03:56:56.853Z,989.77
2017-09-07T03:57:54.117Z,989.79
2017-09-07T03:58:51.409Z,989.75
2017-09-07T03:59:48.691Z,989.78
2017-09-07T04:00:45.950Z,989.77
2017-09-07T04:01:43.216Z,989.76
2017-09-07T04:02:40.487Z,989.80
2017-09-07T04:03:37.804Z,989.78
2017-09-07T04:04:35.057Z,989.75
2017-09-07T04:05:32.339Z,989.74
2017-09-07T04:06:29.612Z,989.78
2017-09-07T04:07:26.897Z,989.76
2017-09-07T04:08:24.194Z,989.85
2017-09-07T04:09:21.506Z,989.84
2017-09-07T04:10:18.773Z,989.81
2017-09-07T04:11:16.088Z,989.78
2017-09-07T04:12:13.370Z,989.79
2017-09-07T04:13:10.671Z,989.79
2017-09-07T04:14:07.934Z,989.79
2017-09-07T04:15:05.230Z,989.82
2017-09-07T04:16:02.485Z,989.76
2017-09-07T04:16:59.793Z,989.77
2017-09-07T04:17:57.067Z,989.78
2017-09-07T04:18:54.354Z,989.76
2017-09-07T04:19:51.651Z,989.81
2017-09-07T04:20:48.941Z,989.78
2017-09-07T04:21:46.209Z,989.78
2017-09-07T04:22:43.613Z,989.71
2017-09-07T04:23:40.913Z,989.80
2017-09-07T04:24:38.224Z,989.67
2017-09-07T04:25:35.965Z,989.74
2017-09-07T04:26:33.290Z,989.73
2017-09-07T04:27:30.617Z,989.74
2017-09-07T04:28:27.985Z,989.65
2017-09-07T04:29:25.367Z,989.67
2017-09-07T04:30:22.663Z,989.76
2017-09-07T04:31:19.923Z,989.70
2017-09-07T04:32:17.215Z,989.68
2017-09-07T04:33:14.499Z,989.68
2017-09-07T04:34:11.826Z,989.77
2017-09-07T04:35:09.104Z,989.66
2017-09-07T04:36:06.366Z,989.71
2017-09-07T04:37:05.945Z,989.72
2017-09-07T04:38:03.234Z,989.69
2017-09-07T04:39:00.529Z,989.72
2017-09-07T04:39:57.865Z,989.68
2017-09-07T04:40:55.229Z,989.73
2017-09-07T04:41:52.514Z,989.67
2017-09-07T04:42:49.794Z,989.72
2017-09-07T04:43:47.070Z,989.73
2017-09-07T04:44:44.357Z,989.71
2017-09-07T04:45:41.674Z,989.75
2017-09-07T04:46:38.946Z,989.72
2017-09-07T04:47:36.241Z,989.82
2017-09-07T04:48:33.499Z,989.70
2017-09-07T04:49:30.794Z,989.75
2017-09-07T04:50:28.092Z,989.73
2017-09-07T04:51:25.378Z,989.76
2017-09-07T04:52:22.646Z,989.80
2017-09-07T04:53:19.942Z,989.74
2017-09-07T04:54:17.211Z,989.70
2017-09-07T04:55:14.563Z,989.70
2017-09-07T04:56:11.885Z,989.71
2017-09-07T04:57:09.165Z,989.78
2017-09-07T04:58:06.417Z,989.76
2017-09-07T04:59:03.688Z,989.79
2017-09-07T05:00:00.991Z,989.79
2017-09-07T05:00:58.298Z,989.71
2017-09-07T05:01:55.554Z,989.73
2017-09-07T05:02:52.874Z,989.75
2017-09-07T05:03:50.161Z,989.76
2017-09-07T05:04:47.418Z,989.73
2017-09-07T05:05:44.707Z,989.73
2017-09-07T05:06:42.015Z,989.73
2017-09-07T05:07:39.248Z,989.78
2017-09-07T05:08:36.545Z,989.84
2017-09-07T05:09:33.765Z,989.84
2017-09-07T05:10:31.033Z,989.75
2017-09-07T05:11:28.370Z,989.85
2017-09-07T05:12:25.634Z,989.76
2017-09-07T05:13:22.941Z,989.76
2017-09-07T05:14:20.232Z,989.81
2017-09-07T05:15:17.474Z,989.84
2017-09-07T05:16:14.771Z,989.81
2017-09-07T05:17:12.009Z,989.75
2017-09-07T05:18:09.598Z,989.80
2017-09-07T05:19:06.840Z,989.83
2017-09-07T05:20:04.120Z,989.82
2017-09-07T05:21:01.394Z,989.82
2017-09-07T05:21:58.674Z,989.86
2017-09-07T05:22:55.974Z,989.88
2017-09-07T05:23:53.252Z,989.87
2017-09-07T05:24:50.505Z,989.79
2017-09-07T05:25:47.778Z,989.84
2017-09-07T05:26:45.046Z,989.85
2017-09-07T05:27:42.317Z,989.83
2017-09-07T05:28:39.570Z,989.83
2017-09-07T05:29:36.849Z,989.81
2017-09-07T05:30:34.114Z,989.86
2017-09-07T05:31:31.433Z,989.81
2017-09-07T05:32:28.716Z,989.82
2017-09-07T05:33:25.985Z,989.82
2017-09-07T05:34:23.212Z,989.82
2017-09-07T05:35:20.476Z,989.93
2017-09-07T05:36:17.766Z,989.87
2017-09-07T05:37:15.050Z,989.83
2017-09-07T05:38:12.355Z,989.87
2017-09-07T05:39:09.626Z,989.78
2017-09-07T05:40:06.878Z,989.94
2017-09-07T05:41:04.152Z,989.93
2017-09-07T05:42:01.434Z,989.95
2017-09-07T05:42:58.705Z,989.95
2017-09-07T05:43:55.950Z,989.97
2017-09-07T05:44:53.242Z,989.97
2017-09-07T05:45:50.506Z,989.97
2017-09-07T05:46:47.909Z,989.98
2017-09-07T05:47:45.142Z,989.96
2017-09-07T05:48:42.402Z,989.93
2017-09-07T05:49:39.716Z,990.03
2017-09-07T05:50:37.026Z,990.01
2017-09-07T05:51:34.289Z,990.03
2017-09-07T05:52:31.596Z,990.02
2017-09-07T05:53:28.869Z,989.99
2017-09-07T05:54:26.166Z,989.97
2017-09-07T05:55:23.514Z,990.03
2017-09-07T05:56:20.785Z,990.00
2017-09-07T05:57:18.077Z,990.07
2017-09-07T05:58:15.342Z,990.03
2017-09-07T05:59:12.606Z,990.02
2017-09-07T06:00:09.901Z,990.04
2017-09-07T06:01:07.163Z,990.01
2017-09-07T06:02:04.490Z,990.00
2017-09-07T06:03:01.732Z,990.01
2017-09-07T06:03:59.043Z,990.00
2017-09-07T06:04:56.318Z,990.02
2017-09-07T06:05:53.613Z,990.11
2017-09-07T06:06:50.875Z,990.01
2017-09-07T06:07:48.186Z,990.12
2017-09-07T06:08:45.454Z,990.09
2017-09-07T06:09:42.737Z,990.10
2017-09-07T06:10:40.007Z,990.04
2017-09-07T06:11:37.303Z,990.04
2017-09-07T06:12:34.578Z,990.05
2017-09-07T06:13:31.870Z,989.97
2017-09-07T06:14:29.142Z,989.96
2017-09-07T06:15:26.417Z,989.95
2017-09-07T06:16:23.657Z,989.90
2017-09-07T06:17:20.932Z,989.98
2017-09-07T06:18:18.212Z,989.86
2017-09-07T06:19:15.463Z,989.88
2017-09-07T06:20:12.709Z,989.89
2017-09-07T06:21:09.982Z,989.92
2017-09-07T06:22:07.233Z,989.97
2017-09-07T06:23:04.549Z,989.90
2017-09-07T06:24:01.818Z,989.98
2017-09-07T06:24:59.095Z,989.92
2017-09-07T06:25:56.339Z,989.89
2017-09-07T06:26:53.661Z,989.96
2017-09-07T06:27:50.941Z,989.98
2017-09-07T06:28:48.230Z,990.02
2017-09-07T06:29:45.488Z,989.99
2017-09-07T06:30:42.782Z,990.00
2017-09-07T06:31:40.054Z,990.06
2017-09-07T06:32:38.289Z,990.04
2017-09-07T06:33:35.569Z,989.98
2017-09-07T06:34:32.832Z,990.05
2017-09-07T06:35:30.074Z,990.02
2017-09-07T06:36:27.394Z,989.98
2017-09-07T06:37:24.686Z,990.04
2017-09-07T06:38:21.991Z,990.01
2017-09-07T06:39:19.274Z,989.98
2017-09-07T06:40:16.563Z,989.97
2017-09-07T06:41:13.825Z,989.97
2017-09-07T06:42:11.121Z,989.97
2017-09-07T06:43:08.414Z,989.99
2017-09-07T06:44:05.710Z,989.97
2017-09-07T06:45:02.971Z,990.01
2017-09-07T06:46:00.276Z,990.00
2017-09-07T06:46:57.535Z,989.97
2017-09-07T06:47:54.810Z,990.04
2017-09-07T06:48:52.104Z,990.04
2017-09-07T06:49:49.386Z,990.04
2017-09-07T06:50:46.780Z,990.10
2017-09-07T06:51:46.544Z,990.05
2017-09-07T06:52:44.006Z,990.07
2017-09-07T06:53:41.302Z,990.07
2017-09-07T06:54:38.541Z,990.11
2017-09-07T06:55:35.825Z,990.07
2017-09-07T06:56:33.079Z,990.06
2017-09-07T06:57:30.722Z,990.08
2017-09-07T06:58:27.970Z,990.11
2017-09-07T06:59:25.318Z,990.17
2017-09-07T07:00:22.577Z,990.23
2017-09-07T07:01:19.856Z,990.15
2017-09-07T07:02:17.101Z,990.10
2017-09-07T07:03:14.378Z,990.08
2017-09-07T07:04:11.633Z,990.13
2017-09-07T07:05:08.903Z,990.11
2017-09-07T07:06:06.159Z,990.16
2017-09-07T07:07:03.443Z,990.15
2017-09-07T07:08:00.693Z,990.15
2017-09-07T07:08:58.001Z,990.13
2017-09-07T07:09:55.258Z,990.10
2017-09-07T07:10:52.540Z,990.16
2017-09-07T07:11:49.782Z,990.10
2017-09-07T07:12:47.070Z,990.16
2017-09-07T07:13:44.310Z,990.13
2017-09-07T07:14:41.633Z,990.16
2017-09-07T07:15:38.894Z,990.15
2017-09-07T07:16:36.165Z,990.16
2017-09-07T07:17:33.406Z,990.09
2017-09-07T07:18:30.702Z,990.17
2017-09-07T07:19:27.987Z,990.10
2017-09-07T07:20:25.259Z,990.09
2017-09-07T07:21:22.486Z,990.12
2017-09-07T07:22:19.761Z,990.10
2017-09-07T07:23:17.020Z,990.02
2017-09-07T07:24:14.308Z,990.03
2017-09-07T07:25:11.562Z,990.08
2017-09-07T07:26:10.914Z,990.03
2017-09-07T07:27:08.186Z,990.03
2017-09-07T07:28:05.506Z,990.05
2017-09-07T07:29:02.750Z,990.08
2017-09-07T07:30:00.037Z,990.05
2017-09-07T07:30:57.261Z,990.03
2017-09-07T07:31:54.522Z,990.04
2017-09-07T07:32:51.760Z,990.07
2017-09-07T07:33:49.009Z,990.01
2017-09-07T07:34:46.269Z,990.07
2017-09-07T07:35:43.531Z,990.02
2017-09-07T07:36:40.818Z,989.98
2017-09-07T07:37:38.070Z,990.05
2017-09-07T07:38:35.317Z,990.03
2017-09-07T07:39:32.579Z,990.03
2017-09-07T07:40:29.855Z,990.04
2017-09-07T07:41:27.154Z,990.08
2017-09-07T07:42:24.415Z,990.17
2017-09-07T07:43:21.693Z,990.12
2017-09-07T07:44:18.978Z,990.25
2017-09-07T07:45:16.355Z,990.18
2017-09-07T07:46:13.631Z,990.14
2017-09-07T07:47:10.926Z,990.20
2017-09-07T07:48:08.166Z,990.20
2017-09-07T07:49:05.446Z,990.17
2017-09-07T07:50:02.726Z,990.18
2017-09-07T07:50:59.997Z,990.18
2017-09-07T07:51:57.245Z,990.17
2017-09-07T07:52:54.509Z,990.18
2017-09-07T07:53:51.761Z,990.16
2017-09-07T07:54:49.035Z,990.26
2017-09-07T07:55:46.297Z,990.17
2017-09-07T07:56:43.568Z,990.17
2017-09-07T07:57:40.793Z,990.25
2017-09-07T07:58:38.046Z,990.23
2017-09-07T07:59:35.286Z,990.23
2017-09-07T08:00:32.564Z,990.25
2017-09-07T08:01:29.798Z,990.26
2017-09-07T08:02:27.077Z,990.31
2017-09-07T08:03:24.326Z,990.22
2017-09-07T08:04:21.625Z,990.14
2017-09-07T08:05:18.870Z,990.25
2017-09-07T08:06:16.165Z,990.27
2017-09-07T08:07:13.425Z,990.25
2017-09-07T08:08:10.698Z,990.19
2017-09-07T08:09:07.953Z,990.21
2017-09-07T08:10:05.227Z,990.21
2017-09-07T08:11:02.482Z,990.19
2017-09-07T08:11:59.739Z,990.23
2017-09-07T08:12:56.983Z,990.21
2017-09-07T08:13:54.535Z,990.15
2017-09-07T08:14:51.793Z,990.13
2017-09-07T08:15:49.079Z,990.22
2017-09-07T08:16:46.309Z,990.13
2017-09-07T08:17:43.579Z,990.11
2017-09-07T08:18:40.813Z,990.06
2017-09-07T08:19:38.075Z,990.15
2017-09-07T08:20:35.382Z,990.18
2017-09-07T08:21:32.742Z,990.15
2017-09-07T08:22:30.014Z,990.15
2017-09-07T08:23:27.297Z,990.11
2017-09-07T08:24:24.550Z,990.21
2017-09-07T08:25:21.818Z,990.22
2017-09-07T08:26:19.086Z,990.19
2017-09-07T08:27:16.380Z,990.20
2017-09-07T08:28:13.629Z,990.19
2017-09-07T08:29:10.905Z,990.23
2017-09-07T08:30:08.176Z,990.17
2017-09-07T08:31:05.498Z,990.28
2017-09-07T08:32:02.822Z,990.29
2017-09-07T08:33:00.097Z,990.25
2017-09-07T08:33:57.366Z,990.24
2017-09-07T08:34:54.642Z,990.28
2017-09-07T08:35:51.917Z,990.25
2017-09-07T08:36:49.210Z,990.18
2017-09-07T08:37:46.497Z,990.13
2017-09-07T08:38:43.889Z,990.18
2017-09-07T08:39:41.135Z,990.14
2017-09-07T08:40:38.418Z,990.15
2017-09-07T08:41:35.706Z,990.12
2017-09-07T08:42:32.972Z,990.15
2017-09-07T08:43:30.230Z,990.16
2017-09-07T08:44:27.525Z,990.12
2017-09-07T08:45:24.786Z,990.18
2017-09-07T08:46:22.066Z,990.07
2017-09-07T08:47:19.359Z,990.18
2017-09-07T08:48:16.642Z,990.18
2017-09-07T08:49:13.892Z,990.21
2017-09-07T08:50:11.183Z,990.22
2017-09-07T08:51:08.473Z,990.04
2017-09-07T08:52:05.773Z,990.08
2017-09-07T08:53:03.123Z,990.11
2017-09-07T08:54:00.394Z,990.04
2017-09-07T08:54:57.670Z,990.12
2017-09-07T08:55:54.965Z,990.10
2017-09-07T08:56:52.230Z,990.11
2017-09-07T08:57:49.549Z,990.10
2017-09-07T08:58:46.788Z,990.12
2017-09-07T08:59:44.086Z,990.12
2017-09-07T09:00:41.351Z,990.01
2017-09-07T09:01:38.634Z,990.08
2017-09-07T09:02:35.901Z,990.09
2017-09-07T09:03:33.195Z,990.13
2017-09-07T09:04:30.469Z,990.13
2017-09-07T09:05:27.849Z,990.07
2017-09-07T09:06:25.127Z,990.11
2017-09-07T09:07:22.440Z,990.09
2017-09-07T09:08:19.735Z,990.07
2017-09-07T09:09:17.022Z,990.04
2017-09-07T09:10:14.283Z,990.08
2017-09-07T09:11:11.614Z,990.12
2017-09-07T09:12:08.992Z,990.14
2017-09-07T09:13:06.329Z,990.13
2017-09-07T09:14:03.601Z,990.10
2017-09-07T09:15:00.869Z,990.03
2017-09-07T09:15:58.326Z,990.09
2017-09-07T09:16:55.834Z,990.10
2017-09-07T09:17:53.141Z,990.01
2017-09-07T09:18:50.406Z,990.00
2017-09-07T09:19:48.060Z,990.01
2017-09-07T09:20:45.473Z,989.95
2017-09-07T09:21:42.742Z,990.02
2017-09-07T09:22:40.804Z,990.02
2017-09-07T09:23:38.063Z,990.03
2017-09-07T09:24:37.399Z,990.02
2017-09-07T09:25:34.667Z,990.01
2017-09-07T09:26:31.943Z,989.93
2017-09-07T09:27:29.193Z,989.96
2017-09-07T09:28:26.518Z,989.94
2017-09-07T09:29:23.805Z,989.94
2017-09-07T09:30:21.086Z,989.88
2017-09-07T09:31:18.394Z,989.87
2017-09-07T09:32:15.657Z,989.83
2017-09-07T09:33:12.949Z,989.83
2017-09-07T09:34:10.226Z,989.76
2017-09-07T09:35:07.482Z,989.79
2017-09-07T09:36:04.765Z,989.83
2017-09-07T09:37:02.057Z,989.76
2017-09-07T09:37:59.410Z,989.75
2017-09-07T09:38:56.691Z,989.66
2017-09-07T09:39:54.029Z,989.75
2017-09-07T09:40:51.285Z,989.74
2017-09-07T09:41:48.577Z,989.77
2017-09-07T09:42:45.918Z,989.68
2017-09-07T09:43:43.281Z,989.66
2017-09-07T09:44:40.929Z,989.64
2017-09-07T09:45:38.483Z,989.73
2017-09-07T09:46:35.762Z,989.68
2017-09-07T09:47:33.105Z,989.64
2017-09-07T09:48:30.382Z,989.66
2017-09-07T09:49:27.660Z,989.57
2017-09-07T09:50:24.913Z,989.59
2017-09-07T09:51:22.198Z,989.60
2017-09-07T09:52:19.471Z,989.52
2017-09-07T09:53:16.741Z,989.57
2017-09-07T09:54:14.009Z,989.50
2017-09-07T09:55:11.307Z,989.50
2017-09-07T09:56:08.577Z,989.63
2017-09-07T09:57:05.857Z,989.48
2017-09-07T09:58:03.117Z,989.53
2017-09-07T09:59:00.421Z,989.51
2017-09-07T09:59:57.733Z,989.46
2017-09-07T10:00:55.030Z,989.54
2017-09-07T10:01:54.300Z,989.46
2017-09-07T10:02:51.674Z,989.43
2017-09-07T10:03:48.979Z,989.40
2017-09-07T10:04:46.369Z,989.41
2017-09-07T10:05:43.633Z,989.29
2017-09-07T10:06:40.902Z,989.33
2017-09-07T10:07:38.175Z,989.28
2017-09-07T10:08:35.602Z,989.32
2017-09-07T10:09:32.910Z,989.37
2017-09-07T10:10:30.213Z,989.39
2017-09-07T10:11:27.496Z,989.40
2017-09-07T10:12:24.782Z,989.39
2017-09-07T10:13:22.128Z,989.36
2017-09-07T10:14:19.590Z,989.37
2017-09-07T10:15:16.961Z,989.30
2017-09-07T10:16:14.234Z,989.31
2017-09-07T10:17:11.490Z,989.29
2017-09-07T10:18:08.771Z,989.27
2017-09-07T10:19:06.238Z,989.27
2017-09-07T10:20:03.532Z,989.25
2017-09-07T10:21:00.801Z,989.32
2017-09-07T10:21:58.105Z,989.22
2017-09-07T10:22:55.364Z,989.28
2017-09-07T10:23:52.651Z,989.36
2017-09-07T10:24:49.932Z,989.34
2017-09-07T10:25:47.245Z,989.30
2017-09-07T10:26:44.510Z,989.28
2017-09-07T10:27:41.782Z,989.26
2017-09-07T10:28:39.090Z,989.25
2017-09-07T10:29:36.439Z,989.29
2017-09-07T10:30:33.988Z,989.24
2017-09-07T10:31:31.474Z,989.26
2017-09-07T10:32:31.434Z,989.27
2017-09-07T10:33:28.822Z,989.29
2017-09-07T10:34:26.302Z,989.25
2017-09-07T10:35:23.669Z,989.28
2017-09-07T10:36:20.958Z,989.20
2017-09-07T10:37:18.223Z,989.20
2017-09-07T10:38:15.629Z,989.19
2017-09-07T10:39:13.843Z,989.25
2017-09-07T10:40:11.544Z,989.16
2017-09-07T10:41:09.729Z,989.21
2017-09-07T10:42:11.226Z,989.18
2017-09-07T10:43:10.154Z,989.22
2017-09-07T10:44:07.393Z,989.24
2017-09-07T10:45:04.701Z,989.24
2017-09-07T10:46:02.047Z,989.30
2017-09-07T10:46:59.355Z,989.21
2017-09-07T10:47:56.625Z,989.22
2017-09-07T10:48:53.907Z,989.24
2017-09-07T10:49:51.180Z,989.16
2017-09-07T10:50:48.441Z,989.25
2017-09-07T10:51:45.724Z,989.23
2017-09-07T10:52:43.031Z,989.24
2017-09-07T10:53:40.305Z,989.25
2017-09-07T10:54:37.614Z,989.21
2017-09-07T10:55:34.936Z,989.23
2017-09-07T10:56:32.230Z,989.15
2017-09-07T10:57:29.521Z,989.12
2017-09-07T10:58:26.801Z,989.06
2017-09-07T10:59:24.075Z,989.05
2017-09-07T11:00:21.373Z,989.09
2017-09-07T11:01:18.696Z,989.05
2017-09-07T11:02:15.987Z,989.06
2017-09-07T11:03:13.222Z,988.99
2017-09-07T11:04:10.524Z,989.05
2017-09-07T11:05:07.788Z,988.97
2017-09-07T11:06:05.125Z,989.01
2017-09-07T11:07:02.414Z,989.01
2017-09-07T11:07:59.695Z,988.93
2017-09-07T11:08:56.942Z,989.00
2017-09-07T11:09:54.218Z,988.85
2017-09-07T11:10:51.478Z,988.93
2017-09-07T11:11:48.793Z,988.94
2017-09-07T11:12:46.107Z,988.87
2017-09-07T11:13:43.367Z,988.91
2017-09-07T11:14:40.650Z,988.89
2017-09-07T11:15:37.947Z,988.88
2017-09-07T11:16:35.234Z,988.88
2017-09-07T11:17:32.509Z,988.93
2017-09-07T11:18:29.759Z,988.82
2017-09-07T11:19:27.141Z,988.85
2017-09-07T11:20:24.389Z,988.80
2017-09-07T11:21:21.695Z,988.81
2017-09-07T11:22:18.994Z,988.81
2017-09-07T11:23:16.289Z,988.77
2017-09-07T11:24:13.554Z,988.76
2017-09-07T11:25:10.814Z,988.71
2017-09-07T11:26:08.231Z,988.73
2017-09-07T11:27:05.571Z,988.76
2017-09-07T11:28:02.855Z,988.74
2017-09-07T11:29:00.410Z,988.71
2017-09-07T11:29:57.704Z,988.69
2017-09-07T11:30:55.274Z,988.73
2017-09-07T11:31:52.678Z,988.66
2017-09-07T11:32:52.100Z,988.70
2017-09-07T11:33:49.723Z,988.65
2017-09-07T11:34:47.159Z,988.69
2017-09-07T11:35:44.698Z,988.65
2017-09-07T11:36:42.166Z,988.62
2017-09-07T11:37:39.424Z,988.62
2017-09-07T11:38:36.983Z,988.60
2017-09-07T11:39:34.449Z,988.61
2017-09-07T11:40:31.947Z,988.62
2017-09-07T11:41:29.226Z,988.61
2017-09-07T11:42:26.538Z,988.60
2017-09-07T11:43:24.057Z,988.65
2017-09-07T11:44:21.360Z,988.60
2017-09-07T11:45:18.722Z,988.58
2017-09-07T11:46:16.178Z,988.62
2017-09-07T11:47:13.587Z,988.65
2017-09-07T11:48:10.970Z,988.66
2017-09-07T11:49:08.305Z,988.61
2017-09-07T11:50:05.661Z,988.63
2017-09-07T11:51:03.042Z,988.64
2017-09-07T11:52:00.434Z,988.57
2017-09-07T11:52:57.832Z,988.59
2017-09-07T11:53:55.284Z,988.66
2017-09-07T11:54:52.675Z,988.57
2017-09-07T11:55:50.137Z,988.60
2017-09-07T11:56:47.418Z,988.64